sensor_id;sensor_type;location;lat;lon;timestamp;P1;durP1;ratioP1;P2;durP2;ratioP2
7104;SDS011;3594;42.152;24.714;2023-02-26T00:02:06;8.87;;;5.87;;
7104;SDS011;3594;42.152;24.714;2023-02-26T00:04:34;9.13;;;5.30;;
7104;SDS011;3594;42.152;24.714;2023-02-26T00:06:59;16.63;;;5.90;;
7104;SDS011;3594;42.152;24.714;2023-02-26T00:09:24;8.67;;;5.37;;
7104;SDS011;3594;42.152;24.714;2023-02-26T00:11:50;7.17;;;4.60;;
7104;SDS011;3594;42.152;24.714;2023-02-26T00:14:16;8.67;;;5.27;;
7104;SDS011;3594;42.152;24.714;2023-02-26T00:16:42;10.60;;;5.50;;
7104;SDS011;3594;42.152;24.714;2023-02-26T00:19:15;8.70;;;5.20;;
7104;SDS011;3594;42.152;24.714;2023-02-26T00:21:40;6.13;;;4.30;;
7104;SDS011;3594;42.152;24.714;2023-02-26T00:24:06;12.53;;;5.63;;
7104;SDS011;3594;42.152;24.714;2023-02-26T00:26:32;13.53;;;5.03;;
7104;SDS011;3594;42.152;24.714;2023-02-26T00:28:58;10.73;;;5.10;;
7104;SDS011;3594;42.152;24.714;2023-02-26T00:31:25;10.70;;;5.07;;
7104;SDS011;3594;42.152;24.714;2023-02-26T00:33:52;9.65;;;4.65;;
7104;SDS011;3594;42.152;24.714;2023-02-26T00:41:27;9.85;;;5.55;;
7104;SDS011;3594;42.152;24.714;2023-02-26T00:43:53;10.87;;;4.67;;
7104;SDS011;3594;42.152;24.714;2023-02-26T00:51:57;11.50;;;4.45;;
7104;SDS011;3594;42.152;24.714;2023-02-26T00:54:29;9.93;;;4.70;;
7104;SDS011;3594;42.152;24.714;2023-02-26T00:56:55;11.13;;;4.67;;
7104;SDS011;3594;42.152;24.714;2023-02-26T00:59:22;6.75;;;4.18;;
7104;SDS011;3594;42.152;24.714;2023-02-26T01:01:49;9.98;;;4.50;;
7104;SDS011;3594;42.152;24.714;2023-02-26T01:04:16;7.18;;;4.60;;
7104;SDS011;3594;42.152;24.714;2023-02-26T01:06:44;8.15;;;3.92;;
7104;SDS011;3594;42.152;24.714;2023-02-26T01:09:17;10.88;;;4.60;;
7104;SDS011;3594;42.152;24.714;2023-02-26T01:11:50;17.23;;;5.55;;
7104;SDS011;3594;42.152;24.714;2023-02-26T01:14:18;10.85;;;4.88;;
7104;SDS011;3594;42.152;24.714;2023-02-26T01:19:52;11.23;;;4.50;;
7104;SDS011;3594;42.152;24.714;2023-02-26T01:22:27;22.45;;;4.28;;
7104;SDS011;3594;42.152;24.714;2023-02-26T01:25:49;15.65;;;4.35;;
7104;SDS011;3594;42.152;24.714;2023-02-26T01:28:14;8.70;;;4.13;;
7104;SDS011;3594;42.152;24.714;2023-02-26T01:30:40;11.70;;;4.55;;
7104;SDS011;3594;42.152;24.714;2023-02-26T01:33:26;9.95;;;4.45;;
7104;SDS011;3594;42.152;24.714;2023-02-26T01:35:53;10.65;;;3.97;;
7104;SDS011;3594;42.152;24.714;2023-02-26T01:38:31;7.95;;;4.55;;
7104;SDS011;3594;42.152;24.714;2023-02-26T01:49:15;7.00;;;4.18;;
7104;SDS011;3594;42.152;24.714;2023-02-26T01:51:48;10.02;;;3.85;;
7104;SDS011;3594;42.152;24.714;2023-02-26T01:54:39;6.43;;;3.72;;
7104;SDS011;3594;42.152;24.714;2023-02-26T01:57:05;11.43;;;4.47;;
7104;SDS011;3594;42.152;24.714;2023-02-26T01:59:34;17.88;;;5.55;;
7104;SDS011;3594;42.152;24.714;2023-02-26T02:02:03;8.50;;;5.03;;
7104;SDS011;3594;42.152;24.714;2023-02-26T02:04:31;11.85;;;5.20;;
7104;SDS011;3594;42.152;24.714;2023-02-26T02:06:57;7.72;;;4.45;;
7104;SDS011;3594;42.152;24.714;2023-02-26T02:09:24;7.20;;;3.97;;
7104;SDS011;3594;42.152;24.714;2023-02-26T02:17:02;5.70;;;2.65;;
7104;SDS011;3594;42.152;24.714;2023-02-26T02:27:55;6.30;;;2.25;;
7104;SDS011;3594;42.152;24.714;2023-02-26T02:33:17;5.97;;;2.63;;
7104;SDS011;3594;42.152;24.714;2023-02-26T02:35:58;6.25;;;2.17;;
7104;SDS011;3594;42.152;24.714;2023-02-26T02:38:51;6.22;;;2.60;;
7104;SDS011;3594;42.152;24.714;2023-02-26T02:42:06;5.47;;;2.05;;
7104;SDS011;3594;42.152;24.714;2023-02-26T02:44:17;6.25;;;2.78;;
7104;SDS011;3594;42.152;24.714;2023-02-26T02:46:46;4.45;;;2.42;;
7104;SDS011;3594;42.152;24.714;2023-02-26T02:49:17;2.92;;;1.85;;
7104;SDS011;3594;42.152;24.714;2023-02-26T02:52:00;3.70;;;2.25;;
7104;SDS011;3594;42.152;24.714;2023-02-26T02:54:36;4.95;;;2.42;;
7104;SDS011;3594;42.152;24.714;2023-02-26T02:57:26;3.60;;;2.47;;
7104;SDS011;3594;42.152;24.714;2023-02-26T03:00:08;12.63;;;2.65;;
7104;SDS011;3594;42.152;24.714;2023-02-26T03:05:21;4.40;;;2.65;;
7104;SDS011;3594;42.152;24.714;2023-02-26T03:07:57;3.50;;;2.08;;
7104;SDS011;3594;42.152;24.714;2023-02-26T03:10:27;3.75;;;2.47;;
7104;SDS011;3594;42.152;24.714;2023-02-26T03:12:52;3.88;;;2.60;;
7104;SDS011;3594;42.152;24.714;2023-02-26T03:18:10;4.30;;;2.60;;
7104;SDS011;3594;42.152;24.714;2023-02-26T03:20:58;5.85;;;3.10;;
7104;SDS011;3594;42.152;24.714;2023-02-26T03:23:33;5.22;;;2.40;;
7104;SDS011;3594;42.152;24.714;2023-02-26T03:26:14;7.75;;;2.50;;
7104;SDS011;3594;42.152;24.714;2023-02-26T03:28:48;3.53;;;2.47;;
7104;SDS011;3594;42.152;24.714;2023-02-26T03:33:58;4.38;;;3.40;;
7104;SDS011;3594;42.152;24.714;2023-02-26T03:39:24;6.55;;;3.42;;
7104;SDS011;3594;42.152;24.714;2023-02-26T03:44:47;3.85;;;2.83;;
7104;SDS011;3594;42.152;24.714;2023-02-26T03:47:18;6.47;;;3.10;;
7104;SDS011;3594;42.152;24.714;2023-02-26T03:49:47;10.00;;;3.65;;
7104;SDS011;3594;42.152;24.714;2023-02-26T03:52:14;7.10;;;3.50;;
7104;SDS011;3594;42.152;24.714;2023-02-26T03:54:42;4.93;;;3.25;;
7104;SDS011;3594;42.152;24.714;2023-02-26T03:57:13;8.38;;;3.38;;
7104;SDS011;3594;42.152;24.714;2023-02-26T03:59:39;5.80;;;3.28;;
7104;SDS011;3594;42.152;24.714;2023-02-26T04:02:12;4.32;;;3.03;;
7104;SDS011;3594;42.152;24.714;2023-02-26T04:07:20;5.97;;;3.10;;
7104;SDS011;3594;42.152;24.714;2023-02-26T04:09:47;7.20;;;4.28;;
7104;SDS011;3594;42.152;24.714;2023-02-26T04:12:14;7.25;;;3.75;;
7104;SDS011;3594;42.152;24.714;2023-02-26T04:14:45;5.53;;;3.10;;
7104;SDS011;3594;42.152;24.714;2023-02-26T04:17:11;5.75;;;3.50;;
7104;SDS011;3594;42.152;24.714;2023-02-26T04:19:36;4.40;;;2.97;;
7104;SDS011;3594;42.152;24.714;2023-02-26T04:22:02;12.60;;;4.35;;
7104;SDS011;3594;42.152;24.714;2023-02-26T04:24:27;7.78;;;3.60;;
7104;SDS011;3594;42.152;24.714;2023-02-26T04:26:53;7.78;;;3.83;;
7104;SDS011;3594;42.152;24.714;2023-02-26T04:29:18;4.72;;;3.38;;
7104;SDS011;3594;42.152;24.714;2023-02-26T04:31:43;6.60;;;3.20;;
7104;SDS011;3594;42.152;24.714;2023-02-26T04:34:09;7.68;;;4.03;;
7104;SDS011;3594;42.152;24.714;2023-02-26T04:36:34;18.20;;;3.38;;
7104;SDS011;3594;42.152;24.714;2023-02-26T04:39:00;6.28;;;3.58;;
7104;SDS011;3594;42.152;24.714;2023-02-26T04:41:25;5.90;;;3.70;;
7104;SDS011;3594;42.152;24.714;2023-02-26T04:43:51;5.43;;;3.78;;
7104;SDS011;3594;42.152;24.714;2023-02-26T04:46:16;3.95;;;3.08;;
7104;SDS011;3594;42.152;24.714;2023-02-26T04:48:42;10.27;;;4.22;;
7104;SDS011;3594;42.152;24.714;2023-02-26T04:51:07;12.65;;;4.10;;
7104;SDS011;3594;42.152;24.714;2023-02-26T04:53:32;4.60;;;2.97;;
7104;SDS011;3594;42.152;24.714;2023-02-26T04:55:58;6.63;;;3.10;;
7104;SDS011;3594;42.152;24.714;2023-02-26T04:58:23;8.82;;;4.10;;
7104;SDS011;3594;42.152;24.714;2023-02-26T05:00:49;15.90;;;4.45;;
7104;SDS011;3594;42.152;24.714;2023-02-26T05:03:16;9.32;;;3.78;;
7104;SDS011;3594;42.152;24.714;2023-02-26T05:05:42;8.10;;;3.35;;
7104;SDS011;3594;42.152;24.714;2023-02-26T05:08:08;11.13;;;3.33;;
7104;SDS011;3594;42.152;24.714;2023-02-26T05:10:34;7.20;;;3.17;;
7104;SDS011;3594;42.152;24.714;2023-02-26T05:12:59;12.48;;;3.75;;
7104;SDS011;3594;42.152;24.714;2023-02-26T05:15:25;6.68;;;3.97;;
7104;SDS011;3594;42.152;24.714;2023-02-26T05:17:50;10.20;;;3.63;;
7104;SDS011;3594;42.152;24.714;2023-02-26T05:20:16;10.18;;;3.55;;
7104;SDS011;3594;42.152;24.714;2023-02-26T05:22:42;7.28;;;4.05;;
7104;SDS011;3594;42.152;24.714;2023-02-26T05:25:08;11.77;;;4.07;;
7104;SDS011;3594;42.152;24.714;2023-02-26T05:27:35;5.88;;;3.53;;
7104;SDS011;3594;42.152;24.714;2023-02-26T05:30:01;9.32;;;4.47;;
7104;SDS011;3594;42.152;24.714;2023-02-26T05:32:27;21.13;;;5.10;;
7104;SDS011;3594;42.152;24.714;2023-02-26T05:34:52;6.65;;;3.72;;
7104;SDS011;3594;42.152;24.714;2023-02-26T05:37:17;5.75;;;3.55;;
7104;SDS011;3594;42.152;24.714;2023-02-26T05:39:43;9.23;;;4.85;;
7104;SDS011;3594;42.152;24.714;2023-02-26T05:42:08;9.77;;;3.55;;
7104;SDS011;3594;42.152;24.714;2023-02-26T05:44:34;8.65;;;3.85;;
7104;SDS011;3594;42.152;24.714;2023-02-26T05:47:00;4.68;;;3.08;;
7104;SDS011;3594;42.152;24.714;2023-02-26T05:49:26;12.30;;;4.40;;
7104;SDS011;3594;42.152;24.714;2023-02-26T05:51:51;8.48;;;3.85;;
7104;SDS011;3594;42.152;24.714;2023-02-26T05:54:17;7.03;;;3.72;;
7104;SDS011;3594;42.152;24.714;2023-02-26T05:56:42;11.75;;;3.90;;
7104;SDS011;3594;42.152;24.714;2023-02-26T05:59:08;5.38;;;3.70;;
7104;SDS011;3594;42.152;24.714;2023-02-26T06:01:34;5.60;;;3.35;;
7104;SDS011;3594;42.152;24.714;2023-02-26T06:04:01;8.98;;;5.18;;
7104;SDS011;3594;42.152;24.714;2023-02-26T06:06:28;9.20;;;3.95;;
7104;SDS011;3594;42.152;24.714;2023-02-26T06:08:53;7.63;;;3.42;;
7104;SDS011;3594;42.152;24.714;2023-02-26T06:11:18;6.93;;;3.67;;
7104;SDS011;3594;42.152;24.714;2023-02-26T06:13:44;16.45;;;4.18;;
7104;SDS011;3594;42.152;24.714;2023-02-26T06:16:09;8.30;;;4.20;;
7104;SDS011;3594;42.152;24.714;2023-02-26T06:18:35;9.68;;;4.80;;
7104;SDS011;3594;42.152;24.714;2023-02-26T06:21:01;12.55;;;4.43;;
7104;SDS011;3594;42.152;24.714;2023-02-26T06:23:26;11.23;;;5.63;;
7104;SDS011;3594;42.152;24.714;2023-02-26T06:25:52;23.05;;;6.57;;
7104;SDS011;3594;42.152;24.714;2023-02-26T06:28:18;13.30;;;5.40;;
7104;SDS011;3594;42.152;24.714;2023-02-26T06:30:44;10.68;;;5.10;;
7104;SDS011;3594;42.152;24.714;2023-02-26T06:33:11;8.73;;;4.15;;
7104;SDS011;3594;42.152;24.714;2023-02-26T06:35:36;12.75;;;4.47;;
7104;SDS011;3594;42.152;24.714;2023-02-26T06:38:02;13.18;;;4.45;;
7104;SDS011;3594;42.152;24.714;2023-02-26T06:40:28;10.05;;;4.53;;
7104;SDS011;3594;42.152;24.714;2023-02-26T06:42:55;9.48;;;4.43;;
7104;SDS011;3594;42.152;24.714;2023-02-26T06:45:21;8.88;;;4.25;;
7104;SDS011;3594;42.152;24.714;2023-02-26T06:47:47;10.73;;;4.43;;
7104;SDS011;3594;42.152;24.714;2023-02-26T06:50:12;15.35;;;4.88;;
7104;SDS011;3594;42.152;24.714;2023-02-26T06:52:38;9.60;;;4.80;;
7104;SDS011;3594;42.152;24.714;2023-02-26T06:55:03;9.65;;;4.10;;
7104;SDS011;3594;42.152;24.714;2023-02-26T06:57:29;6.90;;;4.05;;
7104;SDS011;3594;42.152;24.714;2023-02-26T06:59:54;8.10;;;4.65;;
7104;SDS011;3594;42.152;24.714;2023-02-26T07:02:21;15.45;;;4.25;;
7104;SDS011;3594;42.152;24.714;2023-02-26T07:04:47;7.90;;;4.82;;
7104;SDS011;3594;42.152;24.714;2023-02-26T07:07:14;15.18;;;5.10;;
7104;SDS011;3594;42.152;24.714;2023-02-26T07:09:40;7.75;;;4.07;;
7104;SDS011;3594;42.152;24.714;2023-02-26T07:12:05;11.48;;;4.75;;
7104;SDS011;3594;42.152;24.714;2023-02-26T07:14:32;8.43;;;4.47;;
7104;SDS011;3594;42.152;24.714;2023-02-26T07:16:58;7.72;;;4.10;;
7104;SDS011;3594;42.152;24.714;2023-02-26T07:19:25;12.18;;;3.88;;
7104;SDS011;3594;42.152;24.714;2023-02-26T07:21:50;9.93;;;4.20;;
7104;SDS011;3594;42.152;24.714;2023-02-26T07:24:16;8.40;;;3.45;;
7104;SDS011;3594;42.152;24.714;2023-02-26T07:26:42;9.95;;;3.80;;
7104;SDS011;3594;42.152;24.714;2023-02-26T07:29:07;10.07;;;3.72;;
7104;SDS011;3594;42.152;24.714;2023-02-26T07:31:33;6.65;;;3.90;;
7104;SDS011;3594;42.152;24.714;2023-02-26T07:33:58;13.73;;;4.78;;
7104;SDS011;3594;42.152;24.714;2023-02-26T07:36:24;11.55;;;5.07;;
7104;SDS011;3594;42.152;24.714;2023-02-26T07:38:49;10.02;;;4.18;;
7104;SDS011;3594;42.152;24.714;2023-02-26T07:41:15;15.40;;;2.33;;
7104;SDS011;3594;42.152;24.714;2023-02-26T07:43:40;8.52;;;3.22;;
7104;SDS011;3594;42.152;24.714;2023-02-26T07:46:06;5.30;;;3.08;;
7104;SDS011;3594;42.152;24.714;2023-02-26T07:48:32;14.98;;;4.20;;
7104;SDS011;3594;42.152;24.714;2023-02-26T07:50:57;5.88;;;3.28;;
7104;SDS011;3594;42.152;24.714;2023-02-26T07:53:23;10.85;;;3.42;;
7104;SDS011;3594;42.152;24.714;2023-02-26T07:55:48;7.10;;;2.92;;
7104;SDS011;3594;42.152;24.714;2023-02-26T07:58:14;5.10;;;2.50;;
7104;SDS011;3594;42.152;24.714;2023-02-26T08:00:39;8.68;;;3.50;;
7104;SDS011;3594;42.152;24.714;2023-02-26T08:03:05;4.55;;;2.70;;
7104;SDS011;3594;42.152;24.714;2023-02-26T08:05:30;4.57;;;2.67;;
7104;SDS011;3594;42.152;24.714;2023-02-26T08:07:55;6.82;;;3.08;;
7104;SDS011;3594;42.152;24.714;2023-02-26T08:10:21;7.40;;;2.38;;
7104;SDS011;3594;42.152;24.714;2023-02-26T08:12:46;12.02;;;3.10;;
7104;SDS011;3594;42.152;24.714;2023-02-26T08:15:12;5.93;;;2.47;;
7104;SDS011;3594;42.152;24.714;2023-02-26T08:17:38;18.33;;;3.05;;
7104;SDS011;3594;42.152;24.714;2023-02-26T08:20:05;5.55;;;2.97;;
7104;SDS011;3594;42.152;24.714;2023-02-26T08:22:31;9.00;;;2.95;;
7104;SDS011;3594;42.152;24.714;2023-02-26T08:24:57;5.38;;;2.90;;
7104;SDS011;3594;42.152;24.714;2023-02-26T08:27:22;13.02;;;2.75;;
7104;SDS011;3594;42.152;24.714;2023-02-26T08:29:48;7.13;;;2.78;;
7104;SDS011;3594;42.152;24.714;2023-02-26T08:32:14;9.65;;;2.80;;
7104;SDS011;3594;42.152;24.714;2023-02-26T08:34:41;13.02;;;2.92;;
7104;SDS011;3594;42.152;24.714;2023-02-26T08:37:07;7.22;;;2.50;;
7104;SDS011;3594;42.152;24.714;2023-02-26T08:39:35;9.50;;;2.80;;
7104;SDS011;3594;42.152;24.714;2023-02-26T08:42:03;11.50;;;3.30;;
7104;SDS011;3594;42.152;24.714;2023-02-26T08:44:30;6.63;;;3.42;;
7104;SDS011;3594;42.152;24.714;2023-02-26T08:46:56;4.78;;;2.60;;
7104;SDS011;3594;42.152;24.714;2023-02-26T08:49:22;8.30;;;2.97;;
7104;SDS011;3594;42.152;24.714;2023-02-26T08:51:47;11.60;;;2.72;;
7104;SDS011;3594;42.152;24.714;2023-02-26T08:54:13;16.02;;;3.13;;
7104;SDS011;3594;42.152;24.714;2023-02-26T08:56:38;6.88;;;2.70;;
7104;SDS011;3594;42.152;24.714;2023-02-26T08:59:04;5.90;;;2.40;;
7104;SDS011;3594;42.152;24.714;2023-02-26T09:01:30;11.45;;;2.92;;
7104;SDS011;3594;42.152;24.714;2023-02-26T09:03:55;10.57;;;3.13;;
7104;SDS011;3594;42.152;24.714;2023-02-26T09:06:21;10.55;;;2.60;;
7104;SDS011;3594;42.152;24.714;2023-02-26T09:08:46;5.65;;;2.38;;
7104;SDS011;3594;42.152;24.714;2023-02-26T09:11:13;6.68;;;2.67;;
7104;SDS011;3594;42.152;24.714;2023-02-26T09:13:39;8.63;;;2.63;;
7104;SDS011;3594;42.152;24.714;2023-02-26T09:16:04;8.23;;;2.70;;
7104;SDS011;3594;42.152;24.714;2023-02-26T09:18:30;7.35;;;2.60;;
7104;SDS011;3594;42.152;24.714;2023-02-26T09:20:55;6.90;;;2.90;;
7104;SDS011;3594;42.152;24.714;2023-02-26T09:23:21;3.42;;;2.50;;
7104;SDS011;3594;42.152;24.714;2023-02-26T09:25:50;3.88;;;2.28;;
7104;SDS011;3594;42.152;24.714;2023-02-26T09:28:17;9.10;;;2.35;;
7104;SDS011;3594;42.152;24.714;2023-02-26T09:30:43;15.13;;;3.22;;
7104;SDS011;3594;42.152;24.714;2023-02-26T09:33:08;11.55;;;3.00;;
7104;SDS011;3594;42.152;24.714;2023-02-26T09:35:33;10.32;;;2.72;;
7104;SDS011;3594;42.152;24.714;2023-02-26T09:37:59;12.27;;;3.97;;
7104;SDS011;3594;42.152;24.714;2023-02-26T09:55:52;7.80;;;2.60;;
7104;SDS011;3594;42.152;24.714;2023-02-26T09:58:26;6.38;;;2.33;;
7104;SDS011;3594;42.152;24.714;2023-02-26T10:06:12;10.63;;;2.83;;
7104;SDS011;3594;42.152;24.714;2023-02-26T10:11:21;13.20;;;3.25;;
7104;SDS011;3594;42.152;24.714;2023-02-26T10:14:01;6.28;;;2.40;;
7104;SDS011;3594;42.152;24.714;2023-02-26T10:16:35;6.55;;;2.90;;
7104;SDS011;3594;42.152;24.714;2023-02-26T10:19:06;7.63;;;3.10;;
7104;SDS011;3594;42.152;24.714;2023-02-26T10:21:41;8.32;;;2.72;;
7104;SDS011;3594;42.152;24.714;2023-02-26T10:24:21;9.30;;;3.08;;
7104;SDS011;3594;42.152;24.714;2023-02-26T10:26:59;6.93;;;2.60;;
7104;SDS011;3594;42.152;24.714;2023-02-26T10:35:18;6.88;;;2.50;;
7104;SDS011;3594;42.152;24.714;2023-02-26T10:37:55;5.07;;;2.33;;
7104;SDS011;3594;42.152;24.714;2023-02-26T10:43:29;9.63;;;3.08;;
7104;SDS011;3594;42.152;24.714;2023-02-26T10:46:08;4.40;;;2.50;;
7104;SDS011;3594;42.152;24.714;2023-02-26T10:51:24;4.05;;;2.40;;
7104;SDS011;3594;42.152;24.714;2023-02-26T10:54:36;6.28;;;3.00;;
7104;SDS011;3594;42.152;24.714;2023-02-26T10:56:51;7.18;;;2.03;;
7104;SDS011;3594;42.152;24.714;2023-02-26T10:59:16;11.50;;;3.03;;
7104;SDS011;3594;42.152;24.714;2023-02-26T11:01:42;5.70;;;2.42;;
7104;SDS011;3594;42.152;24.714;2023-02-26T11:04:11;7.95;;;2.30;;
7104;SDS011;3594;42.152;24.714;2023-02-26T11:06:48;7.43;;;2.40;;
7104;SDS011;3594;42.152;24.714;2023-02-26T11:09:21;3.13;;;2.30;;
7104;SDS011;3594;42.152;24.714;2023-02-26T11:11:51;4.43;;;2.50;;
7104;SDS011;3594;42.152;24.714;2023-02-26T11:14:17;6.25;;;2.45;;
7104;SDS011;3594;42.152;24.714;2023-02-26T11:16:56;9.18;;;2.28;;
7104;SDS011;3594;42.152;24.714;2023-02-26T11:19:28;6.55;;;2.63;;
7104;SDS011;3594;42.152;24.714;2023-02-26T11:21:57;8.30;;;2.47;;
7104;SDS011;3594;42.152;24.714;2023-02-26T11:24:35;9.40;;;3.00;;
7104;SDS011;3594;42.152;24.714;2023-02-26T11:27:06;11.02;;;3.17;;
7104;SDS011;3594;42.152;24.714;2023-02-26T11:29:38;8.70;;;2.58;;
7104;SDS011;3594;42.152;24.714;2023-02-26T11:32:32;9.73;;;2.80;;
7104;SDS011;3594;42.152;24.714;2023-02-26T11:34:57;8.27;;;2.78;;
7104;SDS011;3594;42.152;24.714;2023-02-26T11:37:26;6.53;;;3.13;;
7104;SDS011;3594;42.152;24.714;2023-02-26T11:39:55;7.18;;;2.83;;
7104;SDS011;3594;42.152;24.714;2023-02-26T11:42:22;9.20;;;2.80;;
7104;SDS011;3594;42.152;24.714;2023-02-26T11:44:48;8.55;;;2.28;;
7104;SDS011;3594;42.152;24.714;2023-02-26T11:47:15;10.88;;;3.08;;
7104;SDS011;3594;42.152;24.714;2023-02-26T11:49:54;6.57;;;2.55;;
7104;SDS011;3594;42.152;24.714;2023-02-26T11:52:28;10.15;;;3.03;;
7104;SDS011;3594;42.152;24.714;2023-02-26T11:55:02;6.85;;;2.50;;
7104;SDS011;3594;42.152;24.714;2023-02-26T11:57:52;7.43;;;2.30;;
7104;SDS011;3594;42.152;24.714;2023-02-26T12:00:29;3.75;;;2.35;;
7104;SDS011;3594;42.152;24.714;2023-02-26T12:03:00;3.83;;;2.20;;
7104;SDS011;3594;42.152;24.714;2023-02-26T12:05:32;3.00;;;2.15;;
7104;SDS011;3594;42.152;24.714;2023-02-26T12:07:58;7.30;;;2.35;;
7104;SDS011;3594;42.152;24.714;2023-02-26T12:10:26;6.18;;;2.50;;
7104;SDS011;3594;42.152;24.714;2023-02-26T12:15:51;6.53;;;2.25;;
7104;SDS011;3594;42.152;24.714;2023-02-26T12:18:29;3.70;;;2.28;;
7104;SDS011;3594;42.152;24.714;2023-02-26T12:23:54;8.65;;;2.60;;
7104;SDS011;3594;42.152;24.714;2023-02-26T12:26:27;7.03;;;2.65;;
7104;SDS011;3594;42.152;24.714;2023-02-26T12:34:49;10.68;;;2.75;;
7104;SDS011;3594;42.152;24.714;2023-02-26T12:43:14;10.55;;;2.72;;
7104;SDS011;3594;42.152;24.714;2023-02-26T12:48:45;6.78;;;2.72;;
7104;SDS011;3594;42.152;24.714;2023-02-26T12:51:24;9.50;;;2.50;;
7104;SDS011;3594;42.152;24.714;2023-02-26T12:59:54;6.97;;;2.15;;
7104;SDS011;3594;42.152;24.714;2023-02-26T13:08:09;5.10;;;2.15;;
7104;SDS011;3594;42.152;24.714;2023-02-26T13:10:39;19.40;;;3.33;;
7104;SDS011;3594;42.152;24.714;2023-02-26T13:13:30;10.23;;;1.98;;
7104;SDS011;3594;42.152;24.714;2023-02-26T13:16:12;5.72;;;2.55;;
7104;SDS011;3594;42.152;24.714;2023-02-26T13:18:47;8.15;;;1.88;;
7104;SDS011;3594;42.152;24.714;2023-02-26T13:21:23;9.10;;;2.10;;
7104;SDS011;3594;42.152;24.714;2023-02-26T13:24:01;6.38;;;2.75;;
7104;SDS011;3594;42.152;24.714;2023-02-26T13:26:36;3.40;;;2.30;;
7104;SDS011;3594;42.152;24.714;2023-02-26T13:29:04;4.90;;;2.33;;
7104;SDS011;3594;42.152;24.714;2023-02-26T13:31:58;7.63;;;2.30;;
7104;SDS011;3594;42.152;24.714;2023-02-26T13:34:35;14.00;;;3.17;;
7104;SDS011;3594;42.152;24.714;2023-02-26T13:37:05;3.78;;;2.20;;
7104;SDS011;3594;42.152;24.714;2023-02-26T13:47:33;13.68;;;2.65;;
7104;SDS011;3594;42.152;24.714;2023-02-26T13:55:52;4.60;;;2.05;;
7104;SDS011;3594;42.152;24.714;2023-02-26T14:00:58;5.93;;;2.20;;
7104;SDS011;3594;42.152;24.714;2023-02-26T14:06:23;3.47;;;1.90;;
7104;SDS011;3594;42.152;24.714;2023-02-26T14:08:51;4.25;;;1.92;;
7104;SDS011;3594;42.152;24.714;2023-02-26T14:16:52;11.25;;;2.38;;
7104;SDS011;3594;42.152;24.714;2023-02-26T14:22:16;5.97;;;2.85;;
7104;SDS011;3594;42.152;24.714;2023-02-26T14:27:36;5.40;;;2.20;;
7104;SDS011;3594;42.152;24.714;2023-02-26T14:30:12;3.75;;;1.90;;
7104;SDS011;3594;42.152;24.714;2023-02-26T14:35:30;5.38;;;2.33;;
7104;SDS011;3594;42.152;24.714;2023-02-26T14:38:06;6.60;;;2.05;;
7104;SDS011;3594;42.152;24.714;2023-02-26T14:40:46;4.78;;;2.55;;
7104;SDS011;3594;42.152;24.714;2023-02-26T14:43:20;5.72;;;2.60;;
7104;SDS011;3594;42.152;24.714;2023-02-26T14:45:53;3.80;;;2.17;;
7104;SDS011;3594;42.152;24.714;2023-02-26T14:48:20;8.63;;;2.72;;
7104;SDS011;3594;42.152;24.714;2023-02-26T15:01:38;5.05;;;2.20;;
7104;SDS011;3594;42.152;24.714;2023-02-26T15:12:39;4.65;;;2.38;;
7104;SDS011;3594;42.152;24.714;2023-02-26T15:25:57;11.85;;;2.80;;
7104;SDS011;3594;42.152;24.714;2023-02-26T15:28:27;10.00;;;2.40;;
7104;SDS011;3594;42.152;24.714;2023-02-26T15:30:55;14.25;;;3.05;;
7104;SDS011;3594;42.152;24.714;2023-02-26T15:33:25;3.40;;;2.05;;
7104;SDS011;3594;42.152;24.714;2023-02-26T15:35:51;4.28;;;1.75;;
7104;SDS011;3594;42.152;24.714;2023-02-26T15:38:19;3.17;;;1.95;;
7104;SDS011;3594;42.152;24.714;2023-02-26T15:40:45;4.03;;;2.30;;
7104;SDS011;3594;42.152;24.714;2023-02-26T15:43:15;4.15;;;1.90;;
7104;SDS011;3594;42.152;24.714;2023-02-26T15:45:46;11.10;;;2.28;;
7104;SDS011;3594;42.152;24.714;2023-02-26T15:48:13;6.20;;;2.53;;
7104;SDS011;3594;42.152;24.714;2023-02-26T15:50:43;3.90;;;2.42;;
7104;SDS011;3594;42.152;24.714;2023-02-26T15:53:12;4.50;;;2.17;;
7104;SDS011;3594;42.152;24.714;2023-02-26T15:55:52;8.70;;;2.08;;
7104;SDS011;3594;42.152;24.714;2023-02-26T15:58:22;10.40;;;2.50;;
7104;SDS011;3594;42.152;24.714;2023-02-26T16:00:59;4.25;;;2.33;;
7104;SDS011;3594;42.152;24.714;2023-02-26T16:03:29;2.65;;;1.83;;
7104;SDS011;3594;42.152;24.714;2023-02-26T16:05:57;6.85;;;1.92;;
7104;SDS011;3594;42.152;24.714;2023-02-26T16:08:23;6.03;;;1.88;;
7104;SDS011;3594;42.152;24.714;2023-02-26T16:10:48;4.18;;;2.30;;
7104;SDS011;3594;42.152;24.714;2023-02-26T16:13:19;6.22;;;2.00;;
7104;SDS011;3594;42.152;24.714;2023-02-26T16:15:51;5.00;;;2.28;;
7104;SDS011;3594;42.152;24.714;2023-02-26T16:18:17;5.03;;;2.40;;
7104;SDS011;3594;42.152;24.714;2023-02-26T16:20:49;6.20;;;2.35;;
7104;SDS011;3594;42.152;24.714;2023-02-26T16:23:20;5.10;;;2.08;;
7104;SDS011;3594;42.152;24.714;2023-02-26T16:28:25;7.38;;;2.35;;
7104;SDS011;3594;42.152;24.714;2023-02-26T16:30:56;12.43;;;2.42;;
7104;SDS011;3594;42.152;24.714;2023-02-26T16:33:24;5.10;;;2.00;;
7104;SDS011;3594;42.152;24.714;2023-02-26T16:35:55;3.30;;;2.05;;
7104;SDS011;3594;42.152;24.714;2023-02-26T16:38:30;7.30;;;2.70;;
7104;SDS011;3594;42.152;24.714;2023-02-26T16:40:59;2.75;;;2.33;;
7104;SDS011;3594;42.152;24.714;2023-02-26T16:43:33;8.50;;;2.63;;
7104;SDS011;3594;42.152;24.714;2023-02-26T16:46:13;7.35;;;2.28;;
7104;SDS011;3594;42.152;24.714;2023-02-26T16:48:46;6.10;;;2.40;;
7104;SDS011;3594;42.152;24.714;2023-02-26T16:51:18;5.38;;;2.67;;
7104;SDS011;3594;42.152;24.714;2023-02-26T16:56:34;8.07;;;2.22;;
7104;SDS011;3594;42.152;24.714;2023-02-26T17:04:29;11.02;;;3.25;;
7104;SDS011;3594;42.152;24.714;2023-02-26T17:06:57;15.27;;;3.35;;
7104;SDS011;3594;42.152;24.714;2023-02-26T17:09:34;8.38;;;2.83;;
7104;SDS011;3594;42.152;24.714;2023-02-26T17:14:52;11.57;;;3.13;;
7104;SDS011;3594;42.152;24.714;2023-02-26T17:17:20;6.78;;;2.88;;
7104;SDS011;3594;42.152;24.714;2023-02-26T17:19:46;5.65;;;2.70;;
7104;SDS011;3594;42.152;24.714;2023-02-26T17:22:13;9.18;;;3.28;;
7104;SDS011;3594;42.152;24.714;2023-02-26T17:24:40;10.25;;;3.30;;
7104;SDS011;3594;42.152;24.714;2023-02-26T17:27:13;5.57;;;3.33;;
7104;SDS011;3594;42.152;24.714;2023-02-26T17:29:42;6.18;;;3.35;;
7104;SDS011;3594;42.152;24.714;2023-02-26T17:32:12;9.35;;;3.25;;
7104;SDS011;3594;42.152;24.714;2023-02-26T17:34:44;7.68;;;3.00;;
7104;SDS011;3594;42.152;24.714;2023-02-26T17:37:10;7.15;;;2.85;;
7104;SDS011;3594;42.152;24.714;2023-02-26T17:39:37;4.72;;;3.10;;
7104;SDS011;3594;42.152;24.714;2023-02-26T17:42:07;6.85;;;2.60;;
7104;SDS011;3594;42.152;24.714;2023-02-26T17:44:37;9.32;;;3.30;;
7104;SDS011;3594;42.152;24.714;2023-02-26T17:47:03;5.35;;;2.88;;
7104;SDS011;3594;42.152;24.714;2023-02-26T17:49:29;6.20;;;2.30;;
7104;SDS011;3594;42.152;24.714;2023-02-26T17:51:56;9.02;;;3.22;;
7104;SDS011;3594;42.152;24.714;2023-02-26T17:54:23;10.05;;;3.35;;
7104;SDS011;3594;42.152;24.714;2023-02-26T17:56:48;7.82;;;3.25;;
7104;SDS011;3594;42.152;24.714;2023-02-26T17:59:14;11.57;;;3.03;;
7104;SDS011;3594;42.152;24.714;2023-02-26T18:01:40;7.80;;;3.28;;
7104;SDS011;3594;42.152;24.714;2023-02-26T18:04:06;5.05;;;2.67;;
7104;SDS011;3594;42.152;24.714;2023-02-26T18:06:32;6.70;;;2.97;;
7104;SDS011;3594;42.152;24.714;2023-02-26T18:08:59;13.70;;;3.08;;
7104;SDS011;3594;42.152;24.714;2023-02-26T18:11:25;4.57;;;2.85;;
7104;SDS011;3594;42.152;24.714;2023-02-26T18:13:51;7.68;;;3.03;;
7104;SDS011;3594;42.152;24.714;2023-02-26T18:16:21;9.57;;;2.63;;
7104;SDS011;3594;42.152;24.714;2023-02-26T18:18:50;6.20;;;3.10;;
7104;SDS011;3594;42.152;24.714;2023-02-26T18:21:16;13.00;;;3.28;;
7104;SDS011;3594;42.152;24.714;2023-02-26T18:23:43;8.30;;;2.95;;
7104;SDS011;3594;42.152;24.714;2023-02-26T18:26:08;6.32;;;2.75;;
7104;SDS011;3594;42.152;24.714;2023-02-26T18:28:34;9.93;;;3.15;;
7104;SDS011;3594;42.152;24.714;2023-02-26T18:30:59;14.10;;;5.03;;